Huvudsida
METAR-TAF:

METAR-TAF

Flygplatser :

Dakar, Senegal

latitud: 14-44N, longitud: 017-30W, höjd: 27 m

Aktuellt väderrapport

Denna rapport gjordes för 33 minuter sedan, klockan 13:00 UTC
Vind 6 kt från väst
Temperatur 31°C
Fuktighet 66%
Tryck 1012 hPa
Sikt 10 km eller mer
Få moln på en höjd av 1300 ft

METAR: GOOY 151300Z 28006KT 9999 FEW013 31/24 Q1012

Tid: 13:33 (13:33 UTC)

Väderprognos

Denna rapport gjordes för 2 timmar och 3 minuter sedan, klockan 11:30 UTC
Prognos gäller från 15 kl. 12 UTC till 16 kl. 18 UTC
Vind 10 kt från syd
Sikt 10 km eller mer
Spridda moln på en höjd av 1300 ft
Blir
från 15 kl. 17 UTC till 15 kl. 19 UTC
Vind 8 kt från nordväst

TAF: GOOY 151130Z 1512/1618 18010KT 9999 SCT013 BECMG 1517/1519 32008KT

Aktuella väderrapporter och prognoser från 4000 flygplatser (METAR- och TAF-rapporter).

De tillgängliga stationerna syns som gula och röda prickar på kartan.

För musen över prickarna för att se namnen på stationerna.

Klicka sedan för att få väderrapporter och prognoser.

För att ändra kartan: Klicka på de gröna knapparna med ett svart kors på för att zooma in; den gröna knappen med ett streck på för att zooma ut; eller på de gröna pilarna för angränsande kartor.


METAR-TAF: